Time,TemperatureF,DewpointF,PressureIn,WindDirection,WindDirectionDegrees,WindSpeedMPH,WindSpeedGustMPH,Humidity,HourlyPrecipIn,Conditions,Clouds,dailyrainin,SoftwareType,DateUTC
2013-04-09 00:23:00,62.3,60.0,30.06,East,101,0.0,1.0,92,0.00,,,0.00,weatherlink.com 1.10,2013-04-09 05:23:00,
2013-04-09 00:38:00,62.2,60.0,30.06,ENE,74,1.0,1.0,92,0.00,,,0.00,weatherlink.com 1.10,2013-04-09 05:38:00,
2013-04-09 00:53:00,62.0,60.0,30.06,East,84,1.0,2.0,92,0.00,,,0.00,weatherlink.com 1.10,2013-04-09 05:53:00,
2013-04-09 02:24:00,61.9,59.0,30.02,ESE,103,1.0,3.0,89,0.00,,,0.00,weatherlink.com 1.10,2013-04-09 07:24:00,
2013-04-09 02:39:00,61.9,58.0,30.01,ENE,75,1.0,3.0,88,0.00,,,0.00,weatherlink.com 1.10,2013-04-09 07:39:00,
2013-04-09 02:54:00,61.8,58.0,30.01,ENE,77,1.0,3.0,88,0.00,,,0.00,weatherlink.com 1.10,2013-04-09 07:54:00,
2013-04-09 03:09:00,61.8,58.0,30.01,East,94,3.0,4.0,87,0.00,,,0.00,weatherlink.com 1.10,2013-04-09 08:09:00,
2013-04-09 03:24:00,61.9,58.0,30.00,East,95,1.0,4.0,87,0.00,,,0.00,weatherlink.com 1.10,2013-04-09 08:24:00,
2013-04-09 03:39:00,61.8,58.0,30.00,East,91,2.0,3.0,87,0.00,,,0.00,weatherlink.com 1.10,2013-04-09 08:39:00,
2013-04-09 03:54:00,61.9,58.0,30.00,ESE,108,1.0,4.0,87,0.00,,,0.00,weatherlink.com 1.10,2013-04-09 08:54:00,
2013-04-09 04:09:00,62.2,58.0,30.00,ENE,78,2.0,3.0,87,0.00,,,0.00,weatherlink.com 1.10,2013-04-09 09:09:00,
2013-04-09 04:24:00,62.2,58.0,30.00,East,82,0.0,3.0,87,0.00,,,0.00,weatherlink.com 1.10,2013-04-09 09:24:00,
2013-04-09 04:39:00,61.9,58.0,30.00,East,81,1.0,1.0,87,0.00,,,0.00,weatherlink.com 1.10,2013-04-09 09:39:00,
2013-04-09 04:54:00,61.3,58.0,30.01,East,81,0.0,0.0,89,0.00,,,0.00,weatherlink.com 1.10,2013-04-09 09:54:00,
2013-04-09 05:09:00,60.9,58.0,30.02,East,82,1.0,1.0,89,0.00,,,0.00,weatherlink.com 1.10,2013-04-09 10:09:00,
2013-04-09 05:24:00,60.9,58.0,30.02,East,85,1.0,1.0,89,0.00,,,0.00,weatherlink.com 1.10,2013-04-09 10:24:00,
2013-04-09 05:39:00,60.7,58.0,30.03,ENE,77,0.0,2.0,90,0.00,,,0.00,weatherlink.com 1.10,2013-04-09 10:39:00,
2013-04-09 05:54:00,60.4,58.0,30.03,East,89,1.0,2.0,90,0.00,,,0.00,weatherlink.com 1.10,2013-04-09 10:54:00,
2013-04-09 06:24:00,60.2,57.0,30.04,ENE,75,2.0,2.0,90,0.00,,,0.00,weatherlink.com 1.10,2013-04-09 11:24:00,
2013-04-09 06:39:00,60.2,57.0,30.05,ENE,76,1.0,2.0,90,0.00,,,0.00,weatherlink.com 1.10,2013-04-09 11:39:00,
2013-04-09 07:09:00,60.7,58.0,30.06,ENE,63,2.0,4.0,90,0.00,,,0.00,weatherlink.com 1.10,2013-04-09 12:09:00,
2013-04-09 07:39:00,63.6,59.0,30.07,ENE,71,4.0,6.0,85,0.00,,,0.00,weatherlink.com 1.10,2013-04-09 12:39:00,
2013-04-09 07:54:00,65.4,59.0,30.08,East,98,4.0,10.0,81,0.00,,,0.00,weatherlink.com 1.10,2013-04-09 12:54:00,
2013-04-09 08:09:00,66.4,59.0,30.08,ESE,113,6.0,10.0,78,0.00,,,0.00,weatherlink.com 1.10,2013-04-09 13:09:00,
2013-04-09 08:24:00,67.8,60.0,30.08,ENE,77,5.0,8.0,75,0.00,,,0.00,weatherlink.com 1.10,2013-04-09 13:24:00,
2013-04-09 08:39:00,69.0,59.0,30.08,ENE,75,3.0,8.0,71,0.00,,,0.00,weatherlink.com 1.10,2013-04-09 13:39:00,
2013-04-09 08:54:00,70.0,59.0,30.09,East,98,6.0,11.0,69,0.00,,,0.00,weatherlink.com 1.10,2013-04-09 13:54:00,
2013-04-09 09:09:00,71.1,60.0,30.10,ENE,58,3.0,10.0,67,0.00,,,0.00,weatherlink.com 1.10,2013-04-09 14:09:00,
2013-04-09 09:24:00,72.4,59.0,30.10,East,94,8.0,9.0,63,0.00,,,0.00,weatherlink.com 1.10,2013-04-09 14:24:00,
2013-04-09 09:39:00,73.4,59.0,30.10,ENE,67,2.0,11.0,61,0.00,,,0.00,weatherlink.com 1.10,2013-04-09 14:39:00,
2013-04-09 09:55:00,75.1,59.0,30.10,ESE,117,7.0,8.0,57,0.00,,,0.00,weatherlink.com 1.10,2013-04-09 14:55:00,
2013-04-09 10:10:00,75.9,60.0,30.11,SE,132,2.0,12.0,58,0.00,,,0.00,weatherlink.com 1.10,2013-04-09 15:10:00,
2013-04-09 10:25:00,77.2,60.0,30.11,ENE,66,3.0,8.0,56,0.00,,,0.00,weatherlink.com 1.10,2013-04-09 15:25:00,
2013-04-09 10:40:00,78.2,59.0,30.11,East,93,5.0,8.0,52,0.00,,,0.00,weatherlink.com 1.10,2013-04-09 15:40:00,
2013-04-09 10:55:00,78.7,59.0,30.12,East,91,4.0,11.0,51,0.00,,,0.00,weatherlink.com 1.10,2013-04-09 15:55:00,
2013-04-09 11:10:00,79.2,59.0,30.12,NE,45,7.0,12.0,51,0.00,,,0.00,weatherlink.com 1.10,2013-04-09 16:10:00,
2013-04-09 11:25:00,80.4,59.0,30.12,SE,136,2.0,10.0,48,0.00,,,0.00,weatherlink.com 1.10,2013-04-09 16:25:00,
2013-04-09 11:40:00,81.3,62.0,30.12,South,173,0.0,9.0,52,0.00,,,0.00,weatherlink.com 1.10,2013-04-09 16:40:00,
2013-04-09 11:55:00,81.8,59.0,30.11,NNE,32,3.0,10.0,46,0.00,,,0.00,weatherlink.com 1.10,2013-04-09 16:55:00,
2013-04-09 12:10:00,83.4,60.0,30.11,WSW,239,1.0,9.0,45,0.00,,,0.00,weatherlink.com 1.10,2013-04-09 17:10:00,
2013-04-09 12:25:00,82.5,60.0,30.11,ENE,63,3.0,9.0,46,0.00,,,0.00,weatherlink.com 1.10,2013-04-09 17:25:00,
2013-04-09 12:40:00,85.0,61.0,30.11,ESE,116,9.0,10.0,44,0.00,,,0.00,weatherlink.com 1.10,2013-04-09 17:40:00,
2013-04-09 12:55:00,84.5,60.0,30.10,East,82,3.0,8.0,43,0.00,,,0.00,weatherlink.com 1.10,2013-04-09 17:55:00,
2013-04-09 13:10:00,84.2,59.0,30.09,East,79,1.0,11.0,43,0.00,,,0.00,weatherlink.com 1.10,2013-04-09 18:10:00,
2013-04-09 13:25:00,85.3,61.0,30.09,West,264,4.0,12.0,44,0.00,,,0.00,weatherlink.com 1.10,2013-04-09 18:25:00,
2013-04-09 13:40:00,85.9,61.0,30.09,East,98,14.0,14.0,43,0.00,,,0.00,weatherlink.com 1.10,2013-04-09 18:40:00,
2013-04-09 13:55:00,84.6,60.0,30.08,East,82,5.0,9.0,44,0.00,,,0.00,weatherlink.com 1.10,2013-04-09 18:55:00,
2013-04-09 14:10:00,84.7,60.0,30.09,ESE,123,0.0,11.0,44,0.00,,,0.00,weatherlink.com 1.10,2013-04-09 19:10:00,
2013-04-09 14:25:00,85.2,61.0,30.08,ESE,111,4.0,7.0,44,0.00,,,0.00,weatherlink.com 1.10,2013-04-09 19:25:00,
2013-04-09 14:40:00,84.3,61.0,30.08,NNE,23,1.0,6.0,45,0.00,,,0.00,weatherlink.com 1.10,2013-04-09 19:40:00,
2013-04-09 14:55:00,83.7,61.0,30.07,ESE,103,3.0,10.0,47,0.00,,,0.00,weatherlink.com 1.10,2013-04-09 19:55:00,
2013-04-09 15:10:00,84.0,60.0,30.07,ENE,74,5.0,11.0,45,0.00,,,0.00,weatherlink.com 1.10,2013-04-09 20:10:00,
2013-04-09 15:25:00,83.9,61.0,30.07,NNE,23,1.0,6.0,46,0.00,,,0.00,weatherlink.com 1.10,2013-04-09 20:25:00,
2013-04-09 15:40:00,85.7,62.0,30.06,NW,323,2.0,5.0,45,0.00,,,0.00,weatherlink.com 1.10,2013-04-09 20:40:00,
2013-04-09 15:55:00,85.9,60.0,30.05,ENE,64,6.0,9.0,42,0.00,,,0.00,weatherlink.com 1.10,2013-04-09 20:55:00,
2013-04-09 16:10:00,86.2,60.0,30.05,East,84,6.0,9.0,42,0.00,,,0.00,weatherlink.com 1.10,2013-04-09 21:10:00,
2013-04-09 16:25:00,86.0,61.0,30.04,ESE,103,4.0,9.0,43,0.00,,,0.00,weatherlink.com 1.10,2013-04-09 21:25:00,
2013-04-09 16:40:00,84.7,60.0,30.04,ENE,58,2.0,10.0,43,0.00,,,0.00,weatherlink.com 1.10,2013-04-09 21:40:00,
2013-04-09 16:55:00,84.6,60.0,30.04,NNE,28,3.0,8.0,44,0.00,,,0.00,weatherlink.com 1.10,2013-04-09 21:55:00,
2013-04-09 17:10:00,84.4,59.0,30.04,ENE,65,7.0,9.0,43,0.00,,,0.00,weatherlink.com 1.10,2013-04-09 22:10:00,
2013-04-09 17:25:00,83.9,60.0,30.04,ESE,120,1.0,8.0,44,0.00,,,0.00,weatherlink.com 1.10,2013-04-09 22:25:00,
2013-04-09 17:40:00,83.3,60.0,30.04,ESE,120,0.0,6.0,45,0.00,,,0.00,weatherlink.com 1.10,2013-04-09 22:40:00,
2013-04-09 17:55:00,82.7,59.0,30.04,ESE,115,2.0,6.0,45,0.00,,,0.00,weatherlink.com 1.10,2013-04-09 22:55:00,
2013-04-09 18:10:00,82.1,60.0,30.04,ESE,120,4.0,4.0,47,0.00,,,0.00,weatherlink.com 1.10,2013-04-09 23:10:00,
2013-04-09 18:25:00,81.1,60.0,30.05,ENE,76,1.0,6.0,48,0.00,,,0.00,weatherlink.com 1.10,2013-04-09 23:25:00,
2013-04-09 18:40:00,79.5,60.0,30.05,SW,215,0.0,5.0,52,0.00,,,0.00,weatherlink.com 1.10,2013-04-09 23:40:00,
2013-04-09 18:55:00,77.8,59.0,30.05,ESE,121,1.0,4.0,53,0.00,,,0.00,weatherlink.com 1.10,2013-04-09 23:55:00,
2013-04-09 19:10:00,76.4,59.0,30.06,SW,222,0.0,2.0,56,0.00,,,0.00,weatherlink.com 1.10,2013-04-10 00:10:00,
2013-04-09 19:25:00,75.0,59.0,30.06,South,190,1.0,2.0,58,0.00,,,0.00,weatherlink.com 1.10,2013-04-10 00:25:00,
2013-04-09 19:40:00,74.1,59.0,30.07,East,101,1.0,6.0,59,0.00,,,0.00,weatherlink.com 1.10,2013-04-10 00:40:00,
2013-04-09 19:55:00,73.4,59.0,30.07,SE,143,1.0,3.0,60,0.00,,,0.00,weatherlink.com 1.10,2013-04-10 00:55:00,
2013-04-09 20:10:00,72.7,59.0,30.07,ENE,58,0.0,3.0,62,0.00,,,0.00,weatherlink.com 1.10,2013-04-10 01:10:00,
2013-04-09 20:25:00,71.7,59.0,30.08,ENE,64,1.0,3.0,65,0.00,,,0.00,weatherlink.com 1.10,2013-04-10 01:25:00,
2013-04-09 20:40:00,70.9,59.0,30.08,ENE,74,1.0,3.0,67,0.00,,,0.00,weatherlink.com 1.10,2013-04-10 01:40:00,
2013-04-09 20:55:00,69.7,59.0,30.08,ENE,75,0.0,0.0,69,0.00,,,0.00,weatherlink.com 1.10,2013-04-10 01:55:00,
2013-04-09 21:10:00,69.2,59.0,30.09,ENE,64,0.0,2.0,71,0.00,,,0.00,weatherlink.com 1.10,2013-04-10 02:10:00,
2013-04-09 21:25:00,68.9,60.0,30.09,ENE,68,0.0,2.0,72,0.00,,,0.00,weatherlink.com 1.10,2013-04-10 02:25:00,
2013-04-09 21:40:00,68.9,59.0,30.09,ESE,106,0.0,4.0,71,0.00,,,0.00,weatherlink.com 1.10,2013-04-10 02:40:00,
2013-04-09 21:55:00,68.0,59.0,30.09,East,86,0.0,2.0,72,0.00,,,0.00,weatherlink.com 1.10,2013-04-10 02:55:00,
2013-04-09 22:10:00,66.4,59.0,30.09,East,86,0.0,0.0,76,0.00,,,0.00,weatherlink.com 1.10,2013-04-10 03:10:00,
2013-04-09 22:25:00,65.1,58.0,30.09,East,86,0.0,0.0,78,0.00,,,0.00,weatherlink.com 1.10,2013-04-10 03:25:00,
2013-04-09 22:40:00,64.0,58.0,30.09,East,86,0.0,0.0,81,0.00,,,0.00,weatherlink.com 1.10,2013-04-10 03:40:00,
2013-04-09 22:55:00,63.1,58.0,30.09,East,86,0.0,0.0,82,0.00,,,0.00,weatherlink.com 1.10,2013-04-10 03:55:00,
2013-04-09 23:11:00,62.3,58.0,30.09,East,86,0.0,0.0,85,0.00,,,0.00,weatherlink.com 1.10,2013-04-10 04:11:00,
2013-04-09 23:25:00,61.8,58.0,30.09,East,86,0.0,0.0,86,0.00,,,0.00,weatherlink.com 1.10,2013-04-10 04:25:00,
2013-04-09 23:40:00,61.4,57.0,30.09,East,86,0.0,0.0,86,0.00,,,0.00,weatherlink.com 1.10,2013-04-10 04:40:00,
2013-04-09 23:55:00,60.9,57.0,30.08,East,86,0.0,0.0,88,0.00,,,0.00,weatherlink.com 1.10,2013-04-10 04:55:00,